createdAt,value
2022-10-13T00:00:05.548Z,31.50
2022-10-13T00:05:41.101Z,30.05
2022-10-13T00:10:44.440Z,30.42
2022-10-13T00:15:49.414Z,29.95
2022-10-13T00:20:54.133Z,31.98
2022-10-13T00:25:57.606Z,30.77
2022-10-13T00:31:00.942Z,31.65
2022-10-13T00:36:07.471Z,33.22
2022-10-13T00:41:11.009Z,29.13
2022-10-13T00:46:17.092Z,29.30
2022-10-13T00:51:27.345Z,27.48
2022-10-13T00:56:33.081Z,29.35
2022-10-13T01:01:36.550Z,28.60
2022-10-13T01:06:42.278Z,25.17
2022-10-13T01:17:12.053Z,23.45
2022-10-13T01:22:31.877Z,24.63
2022-10-13T01:28:05.658Z,23.48
2022-10-13T01:33:20.946Z,22.20
2022-10-13T01:38:35.462Z,21.23
2022-10-13T01:43:44.252Z,23.30
2022-10-13T01:48:52.129Z,21.77
2022-10-13T01:53:55.487Z,21.55
2022-10-13T01:59:02.433Z,23.33
2022-10-13T02:04:18.372Z,23.67
2022-10-13T02:09:27.910Z,22.65
2022-10-13T02:14:34.821Z,21.73
2022-10-13T02:19:40.995Z,22.40
2022-10-13T02:24:44.459Z,22.70
2022-10-13T02:29:52.567Z,21.90
2022-10-13T02:34:57.714Z,22.42
2022-10-13T02:40:01.691Z,22.13
2022-10-13T02:45:05.996Z,22.75
2022-10-13T02:50:11.329Z,21.90
2022-10-13T02:55:14.769Z,22.63
2022-10-13T03:07:29.375Z,24.60
2022-10-13T03:12:33.146Z,23.63
2022-10-13T03:17:37.027Z,23.65
2022-10-13T03:22:43.967Z,27.08
2022-10-13T03:27:50.689Z,23.95
2022-10-13T03:32:54.311Z,22.52
2022-10-13T03:37:59.092Z,22.88
2022-10-13T03:43:04.040Z,24.63
2022-10-13T03:48:07.640Z,23.33
2022-10-13T03:53:12.648Z,21.55
2022-10-13T03:58:16.113Z,25.27
2022-10-13T04:03:22.662Z,21.67
2022-10-13T04:08:27.473Z,23.45
2022-10-13T04:13:30.964Z,22.30
2022-10-13T04:18:35.023Z,21.95
2022-10-13T04:23:39.754Z,21.75
2022-10-13T04:28:43.727Z,22.48
2022-10-13T04:33:47.498Z,23.10
2022-10-13T04:38:52.680Z,25.85
2022-10-13T04:43:56.217Z,23.48
2022-10-13T04:48:59.625Z,25.20
2022-10-13T04:54:10.235Z,25.45
2022-10-13T04:59:13.672Z,26.88
2022-10-13T05:04:18.972Z,27.38
2022-10-13T05:09:23.734Z,25.95
2022-10-13T05:14:27.064Z,25.30
2022-10-13T05:19:30.718Z,26.88
2022-10-13T05:24:37.559Z,26.60
2022-10-13T05:29:42.193Z,27.92
2022-10-13T05:34:45.723Z,29.60
2022-10-13T05:39:50.977Z,27.80
2022-10-13T05:44:54.585Z,28.88
2022-10-13T05:49:57.894Z,30.42
2022-10-13T05:55:06.373Z,27.40
2022-10-13T06:00:12.857Z,27.65
2022-10-13T06:05:19.418Z,27.15
2022-10-13T06:10:24.802Z,24.65
2022-10-13T06:15:28.527Z,22.98
2022-10-13T06:20:32.910Z,23.45
2022-10-13T06:25:37.701Z,25.90
2022-10-13T06:30:43.256Z,24.73
2022-10-13T06:35:46.861Z,27.02
2022-10-13T06:40:52.085Z,27.15
2022-10-13T06:45:59.549Z,24.30
2022-10-13T06:51:05.647Z,20.10
2022-10-13T06:56:10.822Z,21.55
2022-10-13T07:01:15.016Z,20.00
2022-10-13T07:06:19.139Z,18.17
2022-10-13T07:11:23.988Z,18.42
2022-10-13T07:16:33.270Z,17.83
2022-10-13T07:21:38.161Z,17.08
2022-10-13T07:26:43.027Z,17.23
2022-10-13T07:31:47.112Z,16.20
2022-10-13T07:36:50.672Z,16.88
2022-10-13T07:41:55.386Z,18.05
2022-10-13T07:47:00.638Z,17.42
2022-10-13T07:52:07.687Z,18.27
2022-10-13T07:57:12.669Z,17.45
2022-10-13T08:02:16.077Z,17.92
2022-10-13T08:07:19.766Z,17.67
2022-10-13T08:12:25.377Z,17.67
2022-10-13T08:17:28.892Z,16.83
2022-10-13T08:22:34.265Z,17.65
2022-10-13T08:27:50.742Z,17.50
2022-10-13T08:32:54.869Z,17.52
2022-10-13T08:37:58.410Z,15.90
2022-10-13T08:43:10.202Z,18.48
2022-10-13T08:48:18.630Z,15.50
2022-10-13T08:53:28.716Z,19.05
2022-10-13T08:58:35.601Z,15.73
2022-10-13T09:03:46.304Z,14.85
2022-10-13T09:08:54.190Z,13.50
2022-10-13T09:14:02.513Z,13.40
2022-10-13T09:19:15.608Z,13.63
2022-10-13T09:24:21.157Z,14.65
2022-10-13T09:29:28.172Z,22.08
2022-10-13T09:34:31.770Z,12.52
2022-10-13T09:39:35.394Z,11.80
2022-10-13T09:44:42.210Z,11.43
2022-10-13T09:50:06.683Z,11.20
2022-10-13T09:55:33.007Z,12.50
2022-10-13T10:00:39.926Z,11.23
2022-10-13T10:05:50.855Z,10.55
2022-10-13T10:10:55.774Z,11.75
2022-10-13T10:16:08.587Z,10.40
2022-10-13T10:21:24.810Z,11.13
2022-10-13T10:26:36.371Z,11.82
2022-10-13T10:31:54.796Z,8.90
2022-10-13T10:37:15.444Z,10.15
2022-10-13T10:42:37.041Z,10.43
2022-10-13T10:47:44.485Z,8.25
2022-10-13T10:52:55.276Z,9.48
2022-10-13T10:58:08.947Z,8.77
2022-10-13T11:03:23.560Z,9.68
2022-10-13T11:08:40.849Z,5.80
2022-10-13T11:13:54.965Z,6.30
2022-10-13T11:19:08.831Z,5.65
2022-10-13T11:24:55.555Z,6.10
2022-10-13T11:30:00.911Z,5.90
2022-10-13T11:35:21.203Z,4.80
2022-10-13T11:40:31.820Z,5.80
2022-10-13T11:46:25.734Z,6.55
2022-10-13T11:51:45.126Z,6.80
2022-10-13T11:56:51.122Z,5.25
2022-10-13T12:01:56.201Z,6.30
2022-10-13T12:07:03.450Z,7.60
2022-10-13T12:12:16.070Z,8.77
2022-10-13T12:17:25.580Z,9.27
2022-10-13T12:22:31.819Z,9.63
2022-10-13T12:27:47.232Z,9.63
2022-10-13T12:32:54.251Z,11.15
2022-10-13T12:38:03.228Z,11.48
2022-10-13T12:43:08.241Z,11.50
2022-10-13T12:48:30.331Z,12.20
2022-10-13T12:53:35.897Z,12.30
2022-10-13T12:58:44.678Z,12.98
2022-10-13T13:03:55.985Z,14.63
2022-10-13T13:09:21.150Z,14.00
2022-10-13T13:14:34.882Z,13.23
2022-10-13T13:19:39.286Z,13.20
2022-10-13T13:24:47.079Z,13.30
2022-10-13T13:29:50.518Z,14.27
2022-10-13T13:35:01.063Z,12.23
2022-10-13T13:40:35.278Z,14.88
2022-10-13T13:45:45.894Z,12.90
2022-10-13T13:50:49.727Z,12.88
2022-10-13T13:55:54.482Z,13.73
2022-10-13T14:00:58.000Z,13.25
2022-10-13T14:06:01.401Z,13.15
2022-10-13T14:11:17.231Z,15.02
2022-10-13T14:16:20.612Z,17.80
2022-10-13T14:21:25.095Z,16.00
2022-10-13T14:26:29.925Z,15.90
2022-10-13T14:31:33.563Z,15.02
2022-10-13T14:36:58.430Z,26.73
2022-10-13T14:42:03.453Z,18.02
2022-10-13T14:47:06.984Z,16.90
2022-10-13T14:52:10.623Z,17.38
2022-10-13T14:57:16.143Z,17.58
2022-10-13T15:02:19.798Z,18.35
2022-10-13T15:07:30.190Z,29.38
2022-10-13T15:12:35.576Z,21.90
2022-10-13T15:17:38.953Z,18.17
2022-10-13T15:22:42.401Z,18.15
2022-10-13T15:27:49.116Z,18.30
2022-10-13T15:32:52.679Z,17.75
2022-10-13T15:37:56.060Z,17.95
2022-10-13T15:43:00.856Z,18.63
2022-10-13T15:48:06.458Z,20.25
2022-10-13T15:53:10.121Z,23.15
2022-10-13T15:58:15.158Z,32.72
2022-10-13T16:03:19.632Z,36.85
2022-10-13T16:08:22.994Z,32.35
2022-10-13T16:13:27.839Z,37.50
2022-10-13T16:18:31.830Z,27.98
2022-10-13T16:23:35.565Z,31.30
2022-10-13T16:28:40.586Z,37.20
2022-10-13T16:33:45.480Z,39.50
2022-10-13T16:38:49.705Z,33.53
2022-10-13T16:43:54.534Z,34.65
2022-10-13T16:48:59.151Z,34.53
2022-10-13T16:54:04.411Z,31.60
2022-10-13T16:59:09.773Z,30.63
2022-10-13T17:04:13.425Z,24.98
2022-10-13T17:09:16.876Z,23.75
2022-10-13T17:14:23.280Z,23.73
2022-10-13T17:19:26.951Z,26.40
2022-10-13T17:24:30.940Z,22.90
2022-10-13T17:29:38.686Z,31.85
2022-10-13T17:34:42.068Z,31.45
2022-10-13T17:41:04.353Z,24.25
2022-10-13T17:47:07.697Z,25.90
2022-10-13T17:52:11.564Z,26.55
2022-10-13T17:57:15.099Z,22.85
2022-10-13T18:02:21.653Z,22.77
2022-10-13T18:07:29.189Z,22.25
2022-10-13T18:12:45.211Z,28.30
2022-10-13T18:17:50.322Z,21.00
2022-10-13T18:22:53.678Z,19.02
2022-10-13T18:27:57.041Z,19.20
2022-10-13T18:33:01.843Z,19.38
2022-10-13T18:38:06.382Z,21.08
2022-10-13T18:43:14.501Z,24.53
2022-10-13T18:48:19.926Z,24.13
2022-10-13T18:53:23.488Z,32.63
2022-10-13T18:58:27.017Z,24.05
2022-10-13T19:03:32.635Z,23.85
2022-10-13T19:08:36.516Z,23.30
2022-10-13T19:13:40.704Z,25.88
2022-10-13T19:18:45.729Z,22.70
2022-10-13T19:23:51.282Z,22.00
2022-10-13T19:28:59.866Z,21.08
2022-10-13T19:34:05.094Z,20.77
2022-10-13T19:39:12.296Z,18.48
2022-10-13T19:44:17.578Z,18.83
2022-10-13T19:49:26.030Z,17.70
2022-10-13T19:54:33.829Z,17.98
2022-10-13T19:59:38.246Z,18.83
2022-10-13T20:04:44.101Z,20.10
2022-10-13T20:09:47.660Z,19.40
2022-10-13T20:14:51.078Z,21.45
2022-10-13T20:19:55.925Z,20.65
2022-10-13T20:24:59.289Z,20.02
2022-10-13T20:30:02.763Z,19.48
2022-10-13T20:35:09.161Z,20.63
2022-10-13T20:40:13.000Z,21.10
2022-10-13T20:45:16.607Z,20.52
2022-10-13T20:50:21.409Z,19.70
2022-10-13T20:55:24.793Z,21.17
2022-10-13T21:00:28.485Z,23.95
2022-10-13T21:05:34.788Z,21.15
2022-10-13T21:10:38.371Z,23.00
2022-10-13T21:15:43.592Z,21.60
2022-10-13T21:20:51.582Z,25.75
2022-10-13T21:25:55.437Z,26.60
2022-10-13T21:31:03.221Z,23.58
2022-10-13T21:36:10.884Z,23.00
2022-10-13T21:41:15.967Z,24.33
2022-10-13T21:46:21.712Z,25.42
2022-10-13T21:56:36.885Z,24.83
2022-10-13T22:01:41.322Z,25.42
2022-10-13T22:06:46.329Z,25.23
2022-10-13T22:11:52.887Z,23.00
2022-10-13T22:16:59.677Z,25.13
2022-10-13T22:22:04.528Z,24.65
2022-10-13T22:27:07.842Z,26.25
2022-10-13T22:32:11.206Z,26.90
2022-10-13T22:37:16.352Z,24.90
2022-10-13T22:42:21.337Z,29.50
2022-10-13T22:47:26.422Z,28.48
2022-10-13T22:52:31.185Z,27.60
2022-10-13T22:57:34.545Z,30.17
2022-10-13T23:02:38.117Z,28.55
2022-10-13T23:07:42.814Z,28.98
2022-10-13T23:12:46.354Z,30.13
2022-10-13T23:17:50.190Z,30.25
2022-10-13T23:22:55.525Z,31.92
2022-10-13T23:27:59.145Z,32.33
2022-10-13T23:33:02.777Z,32.28
2022-10-13T23:38:07.751Z,33.83
2022-10-13T23:43:11.531Z,32.78
2022-10-13T23:48:16.470Z,33.00
2022-10-13T23:53:21.293Z,33.65
2022-10-13T23:58:24.633Z,34.08
